Time;durP1;ratioP1;P1;durP2;ratioP2;P2;SDS_P1;SDS_P2;PMS_P1;PMS_P2;Temp;Humidity;BMP_temperature;BMP_pressure;BME280_temperature;BME280_humidity;BME280_pressure;Samples;Min_cycle;Max_cycle;Signal;HPM_P1;HPM_P2
2022/05/14 00:02:20;;;;;;;0.68;0.68;;;15.90;99.90;;;;;;5149653;28;20439;-77
2022/05/14 00:04:55;;;;;;;1.10;1.10;;;15.90;99.90;;;;;;5127103;28;20046;-78
2022/05/14 00:07:29;;;;;;;1.15;1.15;;;15.80;99.90;;;;;;5151458;28;20501;-76
2022/05/14 00:10:01;;;;;;;0.77;0.77;;;15.70;99.90;;;;;;5138783;28;20209;-78
2022/05/14 00:15:25;;;;;;;0.70;0.70;;;15.60;99.90;;;;;;5146756;28;20328;-77
2022/05/14 00:17:56;;;;;;;1.27;1.27;;;15.50;99.90;;;;;;5157313;28;20030;-79
2022/05/14 00:20:31;;;;;;;1.00;1.00;;;15.40;99.90;;;;;;5139198;28;20034;-78
2022/05/14 00:23:04;;;;;;;0.82;0.82;;;15.30;99.90;;;;;;5150917;28;20022;-79
2022/05/14 00:25:36;;;;;;;0.68;0.68;;;15.30;99.90;;;;;;5118941;28;20049;-79
2022/05/14 00:28:10;;;;;;;0.60;0.60;;;15.20;99.90;;;;;;5136677;28;20022;-79
2022/05/14 00:30:42;;;;;;;2.92;1.33;;;15.20;99.90;;;;;;5152043;28;20328;-79
2022/05/14 00:33:13;;;;;;;0.85;0.80;;;15.10;99.90;;;;;;5155207;28;20042;-79
2022/05/14 00:35:44;;;;;;;1.10;1.05;;;15.10;99.90;;;;;;5150006;28;20027;-78
2022/05/14 00:38:19;;;;;;;0.70;0.70;;;15.00;99.90;;;;;;5153037;28;20180;-79
2022/05/14 00:41:06;;;;;;;0.90;0.90;;;14.90;99.90;;;;;;5163300;28;20040;-79
2022/05/14 00:43:56;;;;;;;3.25;1.42;;;14.90;99.90;;;;;;5161050;28;20027;-79
2022/05/14 00:46:46;;;;;;;0.70;0.70;;;14.80;99.90;;;;;;5155806;28;20308;-78
2022/05/14 00:49:26;;;;;;;0.80;0.80;;;14.80;99.90;;;;;;5144690;28;20022;-77
2022/05/14 00:51:59;;;;;;;1.20;1.15;;;14.70;99.90;;;;;;5144281;28;20030;-75
2022/05/14 00:54:49;;;;;;;1.40;1.10;;;14.70;99.90;;;;;;5149477;28;20030;-76
2022/05/14 00:57:25;;;;;;;1.65;1.55;;;14.70;99.90;;;;;;5146065;28;20240;-74
2022/05/14 01:00:02;;;;;;;0.70;0.70;;;14.60;99.90;;;;;;5151532;28;20040;-78
2022/05/14 01:02:34;;;;;;;1.15;1.13;;;14.50;99.90;;;;;;5143019;28;20034;-77
2022/05/14 01:05:07;;;;;;;3.60;1.05;;;14.50;99.90;;;;;;5142949;28;20306;-77
2022/05/14 01:07:41;;;;;;;0.43;0.43;;;14.40;99.90;;;;;;5143671;28;20393;-77
2022/05/14 01:10:16;;;;;;;0.90;0.90;;;14.40;99.90;;;;;;5152116;28;20030;-76
2022/05/14 01:12:55;;;;;;;0.63;0.63;;;14.50;99.90;;;;;;5153157;28;20246;-77
2022/05/14 01:15:49;;;;;;;0.70;0.70;;;14.50;99.90;;;;;;5168818;28;20227;-76
2022/05/14 01:18:24;;;;;;;0.82;0.82;;;14.60;99.90;;;;;;5165881;28;20296;-75
2022/05/14 01:21:01;;;;;;;0.60;0.60;;;14.60;99.90;;;;;;5171527;28;20124;-74
2022/05/14 01:26:36;;;;;;;1.63;1.52;;;14.60;99.90;;;;;;5123320;28;20040;-76
2022/05/14 01:29:09;;;;;;;;;;;14.60;99.90;;;;;;5162464;28;20037;-76
2022/05/14 01:31:42;;;;;;;0.55;0.55;;;14.50;99.90;;;;;;5155449;28;20133;-78
2022/05/14 01:34:20;;;;;;;0.77;0.77;;;14.50;99.90;;;;;;5171161;28;20034;-77
2022/05/14 01:36:55;;;;;;;0.75;0.75;;;14.50;99.90;;;;;;5167601;28;20296;-77
2022/05/14 01:39:34;;;;;;;0.73;0.73;;;14.50;99.90;;;;;;5170623;28;20183;-78
2022/05/14 01:42:06;;;;;;;1.00;1.00;;;14.60;99.90;;;;;;5171503;28;20693;-77
2022/05/14 01:44:38;;;;;;;0.68;0.68;;;14.60;99.90;;;;;;5171658;28;20040;-76
2022/05/14 01:47:17;;;;;;;0.63;0.63;;;14.60;99.90;;;;;;5171365;28;20017;-78
2022/05/14 01:49:54;;;;;;;0.57;0.57;;;14.60;99.90;;;;;;5179633;28;20293;-78
2022/05/14 01:52:30;;;;;;;2.85;2.42;;;14.60;99.90;;;;;;5166337;28;20326;-76
2022/05/14 01:55:01;;;;;;;0.80;0.80;;;14.60;99.90;;;;;;5171128;28;20261;-76
2022/05/14 01:57:33;;;;;;;0.90;0.90;;;14.50;99.90;;;;;;5157588;28;20021;-78
2022/05/14 02:00:12;;;;;;;0.70;0.70;;;14.50;99.90;;;;;;5160008;28;20048;-77
2022/05/14 02:02:47;;;;;;;0.70;0.70;;;14.50;99.90;;;;;;5168800;28;20044;-78
2022/05/14 02:05:24;;;;;;;0.63;0.63;;;14.50;99.90;;;;;;5143263;28;20053;-78
2022/05/14 02:07:59;;;;;;;0.60;0.60;;;14.40;99.90;;;;;;5171290;28;20244;-78
2022/05/14 02:10:34;;;;;;;1.27;1.17;;;14.40;99.90;;;;;;5168232;28;20045;-77
2022/05/14 02:13:09;;;;;;;1.55;1.45;;;14.30;99.90;;;;;;5157710;28;20203;-77
2022/05/14 02:15:44;;;;;;;0.52;0.52;;;14.20;99.90;;;;;;5171627;28;20228;-76
2022/05/14 02:18:21;;;;;;;0.75;0.75;;;14.20;99.90;;;;;;5152290;28;20044;-78
2022/05/14 02:20:53;;;;;;;0.73;0.73;;;14.30;99.90;;;;;;5171714;28;20335;-77
2022/05/14 02:23:27;;;;;;;0.60;0.60;;;14.30;99.90;;;;;;5167439;28;20382;-78
2022/05/14 02:26:01;;;;;;;0.77;0.77;;;14.30;99.90;;;;;;5167314;28;20032;-77
2022/05/14 02:28:35;;;;;;;1.17;1.15;;;14.20;99.90;;;;;;5152851;28;20269;-78
2022/05/14 02:31:07;;;;;;;0.60;0.60;;;14.20;99.90;;;;;;5171002;28;20025;-78
2022/05/14 02:33:39;;;;;;;0.60;0.60;;;14.20;99.90;;;;;;5149466;28;20317;-77
2022/05/14 02:36:10;;;;;;;0.68;0.68;;;14.20;99.90;;;;;;5151937;28;20028;-77
2022/05/14 02:38:44;;;;;;;1.27;0.90;;;14.20;99.90;;;;;;5168643;28;20029;-78
2022/05/14 02:41:20;;;;;;;1.02;0.88;;;14.20;99.90;;;;;;5170859;28;20239;-76
2022/05/14 02:43:53;;;;;;;0.70;0.68;;;14.10;99.90;;;;;;5170411;28;20040;-77
2022/05/14 02:46:29;;;;;;;0.63;0.63;;;14.10;99.90;;;;;;5158995;28;20045;-76
2022/05/14 02:49:04;;;;;;;0.93;0.93;;;14.00;99.90;;;;;;5161525;28;20022;-77
2022/05/14 02:51:39;;;;;;;0.90;0.88;;;14.00;99.90;;;;;;5169709;28;20017;-77
2022/05/14 02:54:13;;;;;;;1.75;1.17;;;13.90;99.90;;;;;;5169798;28;20044;-76
2022/05/14 02:56:47;;;;;;;0.82;0.82;;;13.90;99.90;;;;;;5170162;28;20330;-78
2022/05/14 02:59:22;;;;;;;0.90;0.90;;;14.00;99.90;;;;;;5167728;28;20025;-78
2022/05/14 03:01:54;;;;;;;0.68;0.68;;;13.90;99.90;;;;;;5170630;28;20018;-77
2022/05/14 03:04:29;;;;;;;0.82;0.82;;;13.90;99.90;;;;;;5142920;28;20028;-77
2022/05/14 03:07:00;;;;;;;0.77;0.77;;;13.90;99.90;;;;;;5168966;28;20168;-79
2022/05/14 03:09:32;;;;;;;2.40;1.55;;;13.90;99.90;;;;;;5172930;28;20025;-78
2022/05/14 03:12:04;;;;;;;0.63;0.63;;;13.90;99.90;;;;;;5171456;28;20047;-77
2022/05/14 03:14:36;;;;;;;0.63;0.63;;;13.80;99.90;;;;;;5151980;28;20434;-77
2022/05/14 03:17:11;;;;;;;0.60;0.60;;;13.80;99.90;;;;;;5168191;28;20348;-75
2022/05/14 03:19:42;;;;;;;0.75;0.75;;;13.80;99.90;;;;;;5170541;28;20022;-78
2022/05/14 03:22:14;;;;;;;0.80;0.80;;;13.80;99.90;;;;;;5169675;28;20028;-77
2022/05/14 03:24:51;;;;;;;0.85;0.85;;;13.70;99.90;;;;;;5171205;28;20171;-78
2022/05/14 03:27:27;;;;;;;0.90;0.90;;;13.70;99.90;;;;;;5172025;28;20030;-80
2022/05/14 03:30:00;;;;;;;1.52;0.93;;;13.70;99.90;;;;;;5171419;28;20048;-76
2022/05/14 03:32:34;;;;;;;1.35;1.35;;;13.70;99.90;;;;;;5154693;28;20026;-76
2022/05/14 03:35:08;;;;;;;0.60;0.60;;;13.60;99.90;;;;;;5167700;28;20280;-78
2022/05/14 03:37:39;;;;;;;0.60;0.60;;;13.60;99.90;;;;;;5167164;28;20038;-76
2022/05/14 03:40:11;;;;;;;0.70;0.70;;;13.60;99.90;;;;;;5168183;28;20024;-77
2022/05/14 03:42:45;;;;;;;0.65;0.65;;;13.60;99.90;;;;;;5134069;28;20049;-78
2022/05/14 03:45:16;;;;;;;0.75;0.75;;;13.70;99.90;;;;;;5152762;28;20235;-77
2022/05/14 03:47:50;;;;;;;0.60;0.60;;;13.70;99.90;;;;;;5171502;28;20029;-77
2022/05/14 03:50:21;;;;;;;0.55;0.55;;;13.80;99.90;;;;;;5162577;28;20040;-76
2022/05/14 03:52:52;;;;;;;0.80;0.77;;;13.80;99.90;;;;;;5170572;28;20026;-76
2022/05/14 03:55:24;;;;;;;0.60;0.60;;;13.90;99.90;;;;;;5170466;28;20360;-78
2022/05/14 03:57:55;;;;;;;0.85;0.85;;;13.90;99.90;;;;;;5171216;28;20026;-76
2022/05/14 04:00:26;;;;;;;1.67;1.58;;;13.90;99.90;;;;;;5153763;28;20036;-76
2022/05/14 04:03:02;;;;;;;0.75;0.75;;;13.90;99.90;;;;;;5168520;28;20048;-77
2022/05/14 04:05:36;;;;;;;0.82;0.82;;;14.00;99.90;;;;;;5158567;28;20034;-76
2022/05/14 04:08:10;;;;;;;;;;;14.00;99.90;;;;;;5152401;28;20028;-76
2022/05/14 04:10:41;;;;;;;0.60;0.60;;;14.10;99.90;;;;;;5168462;28;19913;-76
2022/05/14 04:13:14;;;;;;;0.80;0.80;;;14.20;99.90;;;;;;5165803;28;20289;-77
2022/05/14 04:15:46;;;;;;;1.13;0.90;;;14.20;99.90;;;;;;5169540;28;20042;-80
2022/05/14 04:18:24;;;;;;;0.80;0.80;;;14.30;99.90;;;;;;5160182;28;20032;-77
2022/05/14 04:20:57;;;;;;;0.75;0.75;;;14.40;99.90;;;;;;5138223;28;20451;-77
2022/05/14 04:23:30;;;;;;;0.80;0.80;;;14.50;99.90;;;;;;5169164;28;20033;-77
2022/05/14 04:26:06;;;;;;;0.70;0.70;;;14.50;99.90;;;;;;5151536;28;20028;-77
2022/05/14 04:28:38;;;;;;;0.68;0.68;;;14.60;99.90;;;;;;5152707;28;20013;-78
2022/05/14 04:31:11;;;;;;;25.05;1.70;;;14.70;99.90;;;;;;5149276;28;20367;-77
2022/05/14 04:33:46;;;;;;;1.15;1.10;;;14.80;99.90;;;;;;5148498;28;20041;-76
2022/05/14 04:36:18;;;;;;;;;;;14.80;99.90;;;;;;5155802;28;20275;-76
2022/05/14 04:38:55;;;;;;;0.60;0.60;;;14.90;99.90;;;;;;5181546;28;19898;-79
2022/05/14 04:41:30;;;;;;;1.38;1.27;;;14.90;99.90;;;;;;5154575;28;20041;-76
2022/05/14 04:44:05;;;;;;;1.45;1.35;;;14.90;99.90;;;;;;5152586;28;20307;-77
2022/05/14 04:46:37;;;;;;;1.85;1.75;;;14.90;99.90;;;;;;5156541;28;20426;-75
2022/05/14 04:49:08;;;;;;;1.60;1.50;;;14.90;99.90;;;;;;5169191;28;20315;-77
2022/05/14 04:51:42;;;;;;;2.08;1.90;;;14.90;99.90;;;;;;5170144;28;20270;-76
2022/05/14 04:54:16;;;;;;;2.33;1.67;;;15.00;99.90;;;;;;5169784;28;20319;-79
2022/05/14 04:56:53;;;;;;;1.42;1.35;;;15.10;99.90;;;;;;5151380;28;20030;-75
2022/05/14 04:59:28;;;;;;;2.63;2.42;;;15.20;99.90;;;;;;5169112;28;20033;-78
2022/05/14 05:04:54;;;;;;;1.27;1.27;;;15.20;99.90;;;;;;5157033;28;20058;-78
2022/05/14 05:07:28;;;;;;;1.42;1.30;;;15.30;99.90;;;;;;5160720;28;20034;-76
2022/05/14 05:09:59;;;;;;;2.42;2.08;;;15.30;99.90;;;;;;5173443;28;20034;-79
2022/05/14 05:12:32;;;;;;;3.67;1.85;;;15.20;99.90;;;;;;5169703;28;20040;-77
2022/05/14 05:15:09;;;;;;;1.50;1.40;;;15.20;99.90;;;;;;5172320;28;20033;-77
2022/05/14 05:17:46;;;;;;;3.88;1.67;;;15.20;99.90;;;;;;5170067;28;20040;-77
2022/05/14 05:20:18;;;;;;;4.32;2.08;;;15.30;99.90;;;;;;5167965;28;20026;-78
2022/05/14 05:22:49;;;;;;;3.30;2.67;;;15.30;99.90;;;;;;5155177;28;20433;-77
2022/05/14 05:25:23;;;;;;;1.95;1.85;;;15.30;99.90;;;;;;5173578;28;20026;-75
2022/05/14 05:27:54;;;;;;;1.65;1.55;;;15.30;99.90;;;;;;5180447;28;20207;-78
2022/05/14 05:30:26;;;;;;;7.93;4.28;;;15.30;99.90;;;;;;5163627;28;20030;-78
2022/05/14 05:32:57;;;;;;;2.40;1.38;;;15.40;99.90;;;;;;5159847;28;20052;-79
2022/05/14 05:35:29;;;;;;;2.05;1.85;;;15.50;99.90;;;;;;5172834;28;20049;-78
2022/05/14 05:38:01;;;;;;;0.82;0.82;;;15.60;99.90;;;;;;5159792;28;20022;-78
2022/05/14 05:40:33;;;;;;;1.88;1.50;;;15.70;99.90;;;;;;5136307;28;20018;-76
2022/05/14 05:43:11;;;;;;;1.50;1.25;;;15.80;99.90;;;;;;5165099;28;20037;-77
2022/05/14 05:45:49;;;;;;;2.30;1.52;;;15.90;99.90;;;;;;5152679;28;20041;-78
2022/05/14 05:48:24;;;;;;;1.02;0.98;;;16.00;99.90;;;;;;5168557;28;20030;-77
2022/05/14 05:50:55;;;;;;;3.97;2.05;;;15.90;99.90;;;;;;5168408;28;20030;-75
2022/05/14 05:59:08;;;;;;;3.17;1.40;;;16.30;99.90;;;;;;5181643;28;20026;-79
2022/05/14 06:01:41;;;;;;;0.80;0.80;;;16.40;99.90;;;;;;5171873;28;20212;-79
2022/05/14 06:04:15;;;;;;;4.23;1.63;;;16.50;99.90;;;;;;5165221;28;20235;-79
2022/05/14 06:06:50;;;;;;;1.10;1.10;;;16.50;99.90;;;;;;5140505;28;20019;-77
2022/05/14 06:09:26;;;;;;;0.73;0.73;;;16.60;99.90;;;;;;5139415;28;20316;-77
2022/05/14 06:12:00;;;;;;;1.58;1.48;;;16.70;99.90;;;;;;5133054;28;20403;-78
2022/05/14 06:14:36;;;;;;;2.22;1.30;;;16.50;99.90;;;;;;5151178;28;20026;-77
2022/05/14 06:17:10;;;;;;;0.85;0.85;;;16.60;99.90;;;;;;5150846;28;20034;-77
2022/05/14 06:19:43;;;;;;;1.23;1.00;;;16.70;99.90;;;;;;5133533;28;20215;-75
2022/05/14 06:22:14;;;;;;;0.95;0.82;;;16.70;99.90;;;;;;5135685;28;20551;-76
2022/05/14 06:24:45;;;;;;;0.80;0.80;;;16.80;99.90;;;;;;5146539;28;20027;-79
2022/05/14 06:27:16;;;;;;;0.90;0.88;;;16.80;99.90;;;;;;5151735;28;20020;-78
2022/05/14 06:29:50;;;;;;;0.82;0.82;;;17.10;99.90;;;;;;5150263;28;20031;-76
2022/05/14 06:32:24;;;;;;;0.70;0.60;;;17.40;99.90;;;;;;5151527;28;20279;-79
2022/05/14 06:34:55;;;;;;;1.70;1.60;;;17.30;99.90;;;;;;5156028;28;20244;-78
2022/05/14 06:37:26;;;;;;;0.60;0.60;;;17.10;99.90;;;;;;5129127;28;20034;-78
2022/05/14 06:40:00;;;;;;;0.70;0.70;;;17.20;99.90;;;;;;5152634;28;20030;-78
2022/05/14 06:42:32;;;;;;;0.80;0.80;;;17.40;99.90;;;;;;5139358;28;20045;-78
2022/05/14 06:45:08;;;;;;;0.98;0.98;;;17.30;99.90;;;;;;5148155;28;20518;-76
2022/05/14 06:47:41;;;;;;;1.70;0.88;;;17.40;99.90;;;;;;5155535;28;20025;-79
2022/05/14 06:50:13;;;;;;;7.95;0.88;;;17.70;99.90;;;;;;5155180;28;20323;-77
2022/05/14 06:52:51;;;;;;;1.10;1.10;;;17.80;99.90;;;;;;5160902;28;20554;-78
2022/05/14 06:55:26;;;;;;;0.70;0.70;;;17.80;99.90;;;;;;5160149;28;20025;-79
2022/05/14 06:58:01;;;;;;;0.70;0.70;;;17.60;99.90;;;;;;5161234;28;20022;-80
2022/05/14 07:00:36;;;;;;;1.13;1.13;;;17.50;99.90;;;;;;5137317;28;20041;-78
2022/05/14 07:08:54;;;;;;;0.80;0.80;;;17.60;99.90;;;;;;5143051;28;20038;-76
2022/05/14 07:11:28;;;;;;;0.60;0.60;;;17.90;99.90;;;;;;5155855;28;20030;-79
2022/05/14 07:13:59;;;;;;;0.60;0.60;;;18.00;99.90;;;;;;5145366;28;20350;-78
2022/05/14 07:16:33;;;;;;;0.70;0.70;;;18.40;99.90;;;;;;5123436;28;20268;-82
2022/05/14 07:19:09;;;;;;;0.80;0.80;;;18.30;99.90;;;;;;5171737;28;20026;-81
2022/05/14 07:21:47;;;;;;;0.70;0.70;;;18.00;99.90;;;;;;5179587;28;20030;-78
2022/05/14 07:24:28;;;;;;;0.80;0.80;;;18.00;99.90;;;;;;5163232;28;20181;-78
2022/05/14 07:27:03;;;;;;;0.93;0.68;;;18.50;99.90;;;;;;5164238;28;20060;-79
2022/05/14 07:29:35;;;;;;;0.98;0.98;;;18.30;99.90;;;;;;5165057;28;20015;-76
2022/05/14 07:32:11;;;;;;;0.77;0.77;;;18.30;99.90;;;;;;5165620;28;20193;-81
2022/05/14 07:34:46;;;;;;;0.70;0.70;;;18.50;99.90;;;;;;5138306;28;20040;-80
2022/05/14 07:37:33;;;;;;;1.17;0.80;;;18.50;99.90;;;;;;5152534;28;20032;-78
2022/05/14 07:40:11;;;;;;;0.90;0.90;;;18.70;99.90;;;;;;5149725;28;20038;-78
2022/05/14 07:43:09;;;;;;;1.25;0.63;;;18.60;99.90;;;;;;5140243;28;20226;-77
2022/05/14 07:45:48;;;;;;;1.02;1.02;;;18.80;99.90;;;;;;5145101;28;20026;-78
2022/05/14 07:48:24;;;;;;;0.70;0.70;;;19.10;99.90;;;;;;5157769;28;20216;-75
2022/05/14 07:50:58;;;;;;;0.52;0.52;;;19.40;99.90;;;;;;5142432;28;20030;-77
2022/05/14 07:53:31;;;;;;;1.10;0.80;;;19.60;99.90;;;;;;5166759;28;20041;-78
2022/05/14 07:56:04;;;;;;;0.82;0.82;;;19.60;99.90;;;;;;5150446;28;20028;-77
2022/05/14 07:58:40;;;;;;;0.70;0.70;;;19.60;99.90;;;;;;5150651;28;20034;-79
2022/05/14 08:01:13;;;;;;;1.20;1.10;;;19.20;99.90;;;;;;5149569;28;20047;-81
2022/05/14 08:03:47;;;;;;;0.43;0.43;;;19.40;99.90;;;;;;5154607;28;20042;-80
2022/05/14 08:06:19;;;;;;;;;;;19.00;99.90;;;;;;5173012;28;20371;-79
2022/05/14 08:08:51;;;;;;;1.25;1.25;;;19.70;99.90;;;;;;5167510;28;19931;-80
2022/05/14 08:11:27;;;;;;;0.57;0.57;;;19.70;99.90;;;;;;5151410;28;20029;-79
2022/05/14 08:13:59;;;;;;;0.70;0.70;;;19.40;99.90;;;;;;5156675;28;20061;-81
2022/05/14 08:16:31;;;;;;;0.63;0.63;;;19.40;99.90;;;;;;5131586;28;20030;-81
2022/05/14 08:19:10;;;;;;;1.35;0.70;;;19.60;99.90;;;;;;5168313;28;20509;-79
2022/05/14 08:24:32;;;;;;;0.50;0.50;;;19.70;99.90;;;;;;5169149;28;20592;-81
2022/05/14 08:27:07;;;;;;;0.60;0.60;;;19.70;99.90;;;;;;5167815;28;20034;-81
2022/05/14 08:29:42;;;;;;;0.70;0.60;;;19.80;99.90;;;;;;5167255;28;20030;-80
2022/05/14 08:32:21;;;;;;;0.77;0.77;;;19.60;99.90;;;;;;5162013;28;20056;-81
2022/05/14 08:34:52;;;;;;;0.60;0.60;;;20.10;99.90;;;;;;5146260;28;20227;-79
2022/05/14 08:37:26;;;;;;;0.70;0.70;;;20.20;99.90;;;;;;5140800;28;20046;-78
2022/05/14 08:39:58;;;;;;;2.70;1.17;;;20.00;99.90;;;;;;5152660;28;20046;-79
2022/05/14 08:42:32;;;;;;;0.50;0.50;;;20.30;99.90;;;;;;5136677;28;20037;-77
2022/05/14 08:45:05;;;;;;;1.42;1.33;;;20.20;99.90;;;;;;5153245;28;20177;-78
2022/05/14 08:47:46;;;;;;;0.80;0.80;;;20.30;99.90;;;;;;5137381;28;20238;-80
2022/05/14 08:50:18;;;;;;;0.60;0.60;;;21.20;99.90;;;;;;5174915;28;20040;-80
2022/05/14 08:52:49;;;;;;;0.77;0.77;;;21.10;99.90;;;;;;5158273;28;20038;-79
2022/05/14 08:55:20;;;;;;;0.55;0.55;;;20.40;99.90;;;;;;5176830;28;20478;-80
2022/05/14 08:58:14;;;;;;;0.43;0.43;;;20.50;99.90;;;;;;5173348;28;20028;-81
2022/05/14 09:00:45;;;;;;;0.50;0.50;;;21.40;99.90;;;;;;5138834;28;20023;-82
2022/05/14 09:03:17;;;;;;;2.80;1.10;;;21.30;99.90;;;;;;5161661;28;20041;-80
2022/05/14 09:05:55;;;;;;;0.60;0.60;;;21.00;99.90;;;;;;5163375;28;20058;-81
2022/05/14 09:08:28;;;;;;;0.88;0.73;;;21.10;99.90;;;;;;5152822;28;20115;-79
2022/05/14 09:11:05;;;;;;;0.55;0.55;;;21.60;99.90;;;;;;5151167;28;20225;-79
2022/05/14 09:13:49;;;;;;;0.60;0.60;;;21.70;99.90;;;;;;5139824;28;20234;-81
2022/05/14 09:16:33;;;;;;;0.50;0.50;;;21.80;99.90;;;;;;5170643;28;20308;-78
2022/05/14 09:19:15;;;;;;;2.00;1.23;;;21.70;99.90;;;;;;5173576;28;20320;-78
2022/05/14 09:22:17;;;;;;;0.65;0.50;;;21.80;99.90;;;;;;5154464;28;20041;-79
2022/05/14 09:25:05;;;;;;;0.90;0.90;;;21.50;99.90;;;;;;5156520;28;20041;-79
2022/05/14 09:27:57;;;;;;;0.82;0.82;;;21.90;99.90;;;;;;5172483;28;20332;-79
2022/05/14 09:30:39;;;;;;;0.55;0.55;;;22.10;99.90;;;;;;5173620;28;20026;-80
2022/05/14 09:33:30;;;;;;;0.50;0.50;;;21.70;99.90;;;;;;5153008;28;20037;-79
2022/05/14 09:36:07;;;;;;;0.75;0.75;;;21.70;99.90;;;;;;5173713;28;20010;-79
2022/05/14 09:38:38;;;;;;;0.43;0.43;;;22.30;99.90;;;;;;5169133;28;20033;-80
2022/05/14 09:41:21;;;;;;;0.55;0.55;;;22.30;99.90;;;;;;5155262;28;20017;-79
2022/05/14 09:43:57;;;;;;;0.93;0.85;;;22.90;99.90;;;;;;5172804;28;20271;-80
2022/05/14 09:46:34;;;;;;;0.95;0.80;;;23.00;99.90;;;;;;5140788;28;20036;-81
2022/05/14 09:49:19;;;;;;;0.70;0.70;;;22.60;99.90;;;;;;5177826;28;20263;-80
2022/05/14 09:51:53;;;;;;;0.82;0.75;;;21.90;99.90;;;;;;5162221;28;20312;-81
2022/05/14 09:54:43;;;;;;;1.10;1.00;;;22.20;99.90;;;;;;5179962;28;20017;-79
2022/05/14 09:57:36;;;;;;;0.52;0.52;;;22.20;99.90;;;;;;5160472;28;20030;-80
2022/05/14 10:00:16;;;;;;;0.40;0.40;;;22.10;99.90;;;;;;5177901;28;20009;-80
2022/05/14 10:03:19;;;;;;;0.70;0.70;;;22.00;99.90;;;;;;5161607;28;20029;-80
2022/05/14 10:05:53;;;;;;;0.65;0.65;;;22.00;99.90;;;;;;5164111;28;20250;-80
2022/05/14 10:09:01;;;;;;;0.52;0.52;;;22.30;99.90;;;;;;5167001;28;20148;-80
2022/05/14 10:11:42;;;;;;;0.50;0.50;;;22.80;99.90;;;;;;5176085;28;20036;-80
2022/05/14 10:14:16;;;;;;;0.52;0.52;;;22.50;99.90;;;;;;5176337;28;20010;-82
2022/05/14 10:17:18;;;;;;;0.60;0.60;;;22.40;99.90;;;;;;5177269;28;20044;-81
2022/05/14 10:19:54;;;;;;;0.50;0.50;;;22.70;99.90;;;;;;5157161;28;20025;-81
2022/05/14 10:29:13;;;;;;;0.50;0.50;;;23.30;99.90;;;;;;5175840;28;20265;-79
2022/05/14 10:32:08;;;;;;;0.70;0.70;;;23.70;99.90;;;;;;5146084;28;20268;-82
2022/05/14 10:34:49;;;;;;;1.42;0.68;;;23.40;99.90;;;;;;5168715;28;20163;-80
2022/05/14 10:37:47;;;;;;;1.00;1.00;;;23.10;99.90;;;;;;5174950;28;20098;-83
2022/05/14 10:40:36;;;;;;;0.50;0.50;;;23.30;99.90;;;;;;5177473;28;20021;-82
2022/05/14 10:43:35;;;;;;;0.55;0.55;;;24.00;99.90;;;;;;5164398;28;20042;-80
2022/05/14 10:46:21;;;;;;;0.75;0.75;;;23.90;99.90;;;;;;5156509;28;20036;-80
2022/05/14 10:49:21;;;;;;;0.40;0.40;;;24.60;99.90;;;;;;5175307;28;20022;-81
2022/05/14 10:51:53;;;;;;;0.57;0.57;;;24.90;99.90;;;;;;5155746;28;20033;-81
2022/05/14 10:54:25;;;;;;;0.60;0.60;;;25.50;99.90;;;;;;5158769;28;20117;-83
2022/05/14 10:57:23;;;;;;;0.70;0.70;;;25.80;99.90;;;;;;5176031;28;20026;-79
2022/05/14 11:00:12;;;;;;;0.60;0.60;;;25.30;99.90;;;;;;5157267;28;20029;-79
2022/05/14 11:03:09;;;;;;;0.40;0.40;;;25.10;99.90;;;;;;5176431;28;20266;-80
2022/05/14 11:06:12;;;;;;;0.40;0.40;;;26.70;99.90;;;;;;5162411;28;20058;-80
2022/05/14 11:08:46;;;;;;;0.45;0.45;;;27.20;99.90;;;;;;5115547;28;20038;-80
2022/05/14 11:11:29;;;;;;;0.60;0.60;;;26.90;99.90;;;;;;5134262;28;20044;-80
2022/05/14 11:14:07;;;;;;;0.60;0.60;;;27.00;99.90;;;;;;5082649;28;20034;-81
2022/05/14 11:16:48;;;;;;;0.95;0.50;;;27.30;99.90;;;;;;5120529;28;20041;-81
2022/05/14 11:19:33;;;;;;;0.50;0.50;;;26.30;99.90;;;;;;5130344;28;20045;-82
2022/05/14 11:22:04;;;;;;;0.73;0.73;;;25.40;99.90;;;;;;5124338;28;20310;-82
2022/05/14 11:24:37;;;;;;;1.05;0.88;;;25.60;99.90;;;;;;5140701;28;20030;-78
2022/05/14 11:27:09;;;;;;;0.50;0.50;;;25.70;99.90;;;;;;5119155;28;20166;-77
2022/05/14 11:29:57;;;;;;;0.55;0.55;;;25.70;99.90;;;;;;5118964;28;20398;-80
2022/05/14 11:32:41;;;;;;;1.92;0.68;;;26.30;99.90;;;;;;5133142;28;20166;-80
2022/05/14 11:35:15;;;;;;;0.80;0.80;;;26.60;99.90;;;;;;5130699;28;20031;-81
2022/05/14 11:37:52;;;;;;;0.57;0.57;;;27.10;99.90;;;;;;5093711;28;20354;-83
2022/05/14 11:40:28;;;;;;;0.73;0.65;;;27.60;99.90;;;;;;5114387;28;20038;-83
2022/05/14 11:43:31;;;;;;;0.70;0.70;;;26.60;99.90;;;;;;5102954;28;20391;-81
2022/05/14 11:46:32;;;;;;;0.88;0.88;;;27.10;99.90;;;;;;5136871;28;20300;-81
2022/05/14 11:49:20;;;;;;;0.65;0.65;;;27.00;99.90;;;;;;5129716;28;20023;-80
2022/05/14 11:52:13;;;;;;;0.90;0.90;;;27.40;99.90;;;;;;5157038;28;20495;-77
2022/05/14 11:55:08;;;;;;;0.80;0.70;;;28.70;99.90;;;;;;5167757;28;20042;-78
2022/05/14 11:57:55;;;;;;;0.73;0.73;;;29.50;99.90;;;;;;5149414;28;20313;-79
2022/05/14 12:00:32;;;;;;;0.70;0.70;;;27.90;99.90;;;;;;5167997;28;20034;-79
2022/05/14 12:03:31;;;;;;;1.08;0.98;;;28.20;99.90;;;;;;5168262;28;20029;-80
2022/05/14 12:06:20;;;;;;;0.50;0.50;;;29.30;99.90;;;;;;5156756;28;20355;-81
2022/05/14 12:09:10;;;;;;;0.80;0.80;;;31.20;99.90;;;;;;5169625;28;20056;-79
2022/05/14 12:11:53;;;;;;;1.20;1.10;;;28.60;99.90;;;;;;5172308;28;20401;-80
2022/05/14 12:14:31;;;;;;;0.80;0.80;;;28.00;99.90;;;;;;5172486;28;20141;-78
2022/05/14 12:17:06;;;;;;;1.52;1.27;;;27.60;99.90;;;;;;5172836;28;20292;-78
2022/05/14 12:19:43;;;;;;;0.52;0.52;;;28.80;99.90;;;;;;5154339;28;20327;-80
2022/05/14 12:22:15;;;;;;;0.55;0.55;;;29.20;99.90;;;;;;5154254;28;20034;-80
2022/05/14 12:24:58;;;;;;;1.10;1.10;;;28.90;99.90;;;;;;5172614;28;20037;-78
2022/05/14 12:27:31;;;;;;;;;;;27.70;99.90;;;;;;5172540;28;20036;-81
2022/05/14 12:33:11;;;;;;;1.27;1.05;;;27.10;99.90;;;;;;5171238;28;19909;-80
2022/05/14 12:33:19;;;;;;;0.88;0.88;;;28.30;99.90;;;;;;5168257;28;20041;-80
2022/05/14 12:35:58;;;;;;;1.08;0.68;;;28.10;99.90;;;;;;5159295;28;20032;-81
2022/05/14 12:38:35;;;;;;;0.80;0.80;;;27.10;99.90;;;;;;5153565;28;20173;-80
2022/05/14 12:41:21;;;;;;;0.68;0.68;;;26.80;99.90;;;;;;5167886;28;20030;-80
2022/05/14 12:43:54;;;;;;;0.77;0.77;;;27.70;99.90;;;;;;5171559;28;20121;-82
2022/05/14 12:46:29;;;;;;;0.88;0.88;;;30.00;99.90;;;;;;5154322;28;20129;-81
2022/05/14 12:49:00;;;;;;;0.60;0.60;;;30.30;99.90;;;;;;5153967;28;20041;-81
2022/05/14 12:51:31;;;;;;;1.02;0.90;;;29.90;99.90;;;;;;5171636;28;20348;-82
2022/05/14 12:54:05;;;;;;;0.40;0.40;;;30.50;99.90;;;;;;5154438;28;20026;-80
2022/05/14 12:56:39;;;;;;;;;;;32.20;99.90;;;;;;5172100;28;20032;-82
2022/05/14 12:59:15;;;;;;;0.68;0.65;;;32.60;99.90;;;;;;5170390;28;20136;-79
2022/05/14 13:01:49;;;;;;;0.93;0.77;;;29.70;99.90;;;;;;5171254;28;20038;-78
2022/05/14 13:04:31;;;;;;;0.70;0.70;;;28.70;99.90;;;;;;5160124;28;20057;-81
2022/05/14 13:07:03;;;;;;;2.83;1.73;;;28.90;99.90;;;;;;5154411;28;20743;-78
2022/05/14 13:09:36;;;;;;;0.93;0.73;;;28.10;99.90;;;;;;5171690;28;20231;-81
2022/05/14 13:12:18;;;;;;;0.68;0.68;;;29.00;99.90;;;;;;5158810;28;20129;-79
2022/05/14 13:14:56;;;;;;;0.50;0.50;;;29.90;99.90;;;;;;5150948;28;20041;-81
2022/05/14 13:17:36;;;;;;;0.88;0.85;;;30.30;99.90;;;;;;5133555;28;20038;-79
2022/05/14 13:20:19;;;;;;;0.50;0.50;;;28.90;99.90;;;;;;5163886;28;20037;-81
2022/05/14 13:23:04;;;;;;;0.40;0.40;;;29.00;99.90;;;;;;5153557;28;20026;-81
2022/05/14 13:25:36;;;;;;;;;;;28.30;99.90;;;;;;5170665;28;20249;-79
2022/05/14 13:28:31;;;;;;;4.85;0.75;;;29.60;99.90;;;;;;5152426;28;20223;-79
2022/05/14 13:31:17;;;;;;;0.45;0.45;;;30.20;99.90;;;;;;5165802;28;20029;-80
2022/05/14 13:37:16;;;;;;;2.05;0.70;;;30.60;99.90;;;;;;5164847;28;20037;-80
2022/05/14 13:39:56;;;;;;;0.60;0.60;;;30.40;99.90;;;;;;5165117;28;20038;-81
2022/05/14 13:42:32;;;;;;;0.90;0.90;;;30.00;99.90;;;;;;5150487;28;20030;-81
2022/05/14 13:45:24;;;;;;;0.30;0.30;;;29.20;99.90;;;;;;5151216;28;20316;-81
2022/05/14 13:48:07;;;;;;;1.75;1.00;;;29.50;99.90;;;;;;5134189;28;20042;-78
2022/05/14 13:50:45;;;;;;;0.40;0.40;;;29.10;99.90;;;;;;5138545;28;20033;-81
2022/05/14 13:53:34;;;;;;;0.73;0.50;;;29.40;99.90;;;;;;5154256;28;20403;-80
2022/05/14 13:56:15;;;;;;;0.85;0.85;;;29.10;99.90;;;;;;5152101;28;20042;-81
2022/05/14 13:59:04;;;;;;;0.52;0.52;;;29.50;99.90;;;;;;5141459;28;20041;-80
2022/05/14 14:01:44;;;;;;;0.40;0.40;;;29.20;99.90;;;;;;5170823;28;20372;-78
2022/05/14 14:04:28;;;;;;;0.40;0.40;;;28.10;99.90;;;;;;5158143;28;20385;-79
2022/05/14 14:07:10;;;;;;;0.73;0.73;;;28.30;99.90;;;;;;5189530;28;20025;-79
2022/05/14 14:09:43;;;;;;;0.50;0.50;;;29.20;99.90;;;;;;5139571;28;20041;-78
2022/05/14 14:12:15;;;;;;;0.63;0.63;;;29.40;99.90;;;;;;5116137;28;20030;-81
2022/05/14 14:14:46;;;;;;;0.95;0.40;;;30.20;99.90;;;;;;5132764;28;20041;-81